createdAt,value
2018-03-21T00:00:21.786Z,81.60
2018-03-21T00:01:21.758Z,81.70
2018-03-21T00:02:21.752Z,81.70
2018-03-21T00:03:21.721Z,82.17
2018-03-21T00:04:21.697Z,81.98
2018-03-21T00:05:21.677Z,81.98
2018-03-21T00:06:21.658Z,82.26
2018-03-21T00:07:21.635Z,82.45
2018-03-21T00:08:21.631Z,82.83
2018-03-21T00:09:21.597Z,82.83
2018-03-21T00:10:21.580Z,82.64
2018-03-21T00:11:21.557Z,82.83
2018-03-21T00:12:21.541Z,83.59
2018-03-21T00:13:21.512Z,83.02
2018-03-21T00:14:21.511Z,83.59
2018-03-21T00:15:21.477Z,83.59
2018-03-21T00:16:21.450Z,83.49
2018-03-21T00:17:21.436Z,83.21
2018-03-21T00:18:21.418Z,83.30
2018-03-21T00:19:21.412Z,83.40
2018-03-21T00:20:21.373Z,83.21
2018-03-21T00:21:21.356Z,83.40
2018-03-21T00:22:21.344Z,83.07
2018-03-21T00:23:21.310Z,83.45
2018-03-21T00:24:21.290Z,83.21
2018-03-21T00:25:21.302Z,84.01
2018-03-21T00:26:21.253Z,84.49
2018-03-21T00:27:21.234Z,84.96
2018-03-21T00:28:21.215Z,84.68
2018-03-21T00:29:21.211Z,84.96
2018-03-21T00:30:21.172Z,84.58
2018-03-21T00:31:21.170Z,84.39
2018-03-21T00:32:21.136Z,84.58
2018-03-21T00:33:21.113Z,84.96
2018-03-21T00:34:21.107Z,84.96
2018-03-21T00:35:21.067Z,85.81
2018-03-21T00:36:21.054Z,85.62
2018-03-21T00:37:21.045Z,86.57
2018-03-21T00:38:21.010Z,86.19
2018-03-21T00:39:20.988Z,86.19
2018-03-21T00:40:20.984Z,86.00
2018-03-21T00:41:20.954Z,86.29
2018-03-21T00:42:20.929Z,86.76
2018-03-21T00:43:20.912Z,86.38
2018-03-21T00:44:20.897Z,86.38
2018-03-21T00:45:20.886Z,86.29
2018-03-21T00:46:20.848Z,86.19
2018-03-21T00:47:20.823Z,86.19
2018-03-21T00:48:20.808Z,86.10
2018-03-21T00:49:20.783Z,86.38
2018-03-21T00:50:20.767Z,86.19
2018-03-21T00:51:20.768Z,85.91
2018-03-21T00:52:20.724Z,85.91
2018-03-21T00:53:20.721Z,85.72
2018-03-21T00:54:20.680Z,85.72
2018-03-21T00:55:20.682Z,85.91
2018-03-21T00:56:20.661Z,85.53
2018-03-21T00:57:20.623Z,86.00
2018-03-21T00:58:20.601Z,85.91
2018-03-21T00:59:20.581Z,85.91
2018-03-21T01:00:20.581Z,85.72
2018-03-21T01:01:20.540Z,85.81
2018-03-21T01:02:20.518Z,85.72
2018-03-21T01:03:20.517Z,86.00
2018-03-21T01:04:20.481Z,86.76
2018-03-21T01:05:20.457Z,86.76
2018-03-21T01:06:20.440Z,86.38
2018-03-21T01:07:20.414Z,86.85
2018-03-21T01:08:20.398Z,86.76
2018-03-21T01:09:20.399Z,86.38
2018-03-21T01:10:20.373Z,86.38
2018-03-21T01:11:20.339Z,86.76
2018-03-21T01:12:20.319Z,86.57
2018-03-21T01:13:20.304Z,86.66
2018-03-21T01:14:20.295Z,86.94
2018-03-21T01:15:20.254Z,86.94
2018-03-21T01:16:20.235Z,86.76
2018-03-21T01:17:20.220Z,86.85
2018-03-21T01:18:20.196Z,86.94
2018-03-21T01:19:20.174Z,87.42
2018-03-21T01:20:20.171Z,86.94
2018-03-21T01:21:20.134Z,87.13
2018-03-21T01:22:20.113Z,86.94
2018-03-21T01:23:20.104Z,86.94
2018-03-21T01:24:20.081Z,86.85
2018-03-21T01:25:20.056Z,86.66
2018-03-21T01:26:41.046Z,86.66
2018-03-21T01:27:20.007Z,86.94
2018-03-21T01:28:19.997Z,86.66
2018-03-21T01:29:19.979Z,87.32
2018-03-21T01:30:19.956Z,87.42
2018-03-21T01:31:19.940Z,87.32
2018-03-21T01:32:19.911Z,87.51
2018-03-21T01:33:19.885Z,88.36
2018-03-21T01:34:19.869Z,87.70
2018-03-21T01:35:19.868Z,87.79
2018-03-21T01:36:19.821Z,87.61
2018-03-21T01:37:19.827Z,87.89
2018-03-21T01:38:19.785Z,87.61
2018-03-21T01:39:19.774Z,87.42
2018-03-21T01:40:19.743Z,87.61
2018-03-21T01:41:19.751Z,87.42
2018-03-21T01:42:19.722Z,87.42
2018-03-21T01:43:19.680Z,87.61
2018-03-21T01:44:19.666Z,87.51
2018-03-21T01:45:19.640Z,87.32
2018-03-21T01:46:19.622Z,87.70
2018-03-21T01:47:19.624Z,87.51
2018-03-21T01:48:19.595Z,87.42
2018-03-21T01:49:19.558Z,87.51
2018-03-21T01:50:19.540Z,87.04
2018-03-21T01:51:19.519Z,87.42
2018-03-21T01:52:19.490Z,87.79
2018-03-21T01:53:19.486Z,87.98
2018-03-21T01:54:19.451Z,88.17
2018-03-21T01:55:19.435Z,88.65
2018-03-21T01:56:19.420Z,88.08
2018-03-21T01:57:19.403Z,87.89
2018-03-21T01:58:19.390Z,87.70
2018-03-21T01:59:19.377Z,87.79
2018-03-21T02:00:19.324Z,87.89
2018-03-21T02:01:19.311Z,88.08
2018-03-21T02:02:19.292Z,88.27
2018-03-21T02:03:19.270Z,88.36
2018-03-21T02:04:19.249Z,88.17
2018-03-21T02:05:19.254Z,87.98
2018-03-21T02:06:19.208Z,88.55
2018-03-21T02:07:19.188Z,88.46
2018-03-21T02:08:19.171Z,89.22
2018-03-21T02:09:19.173Z,88.74
2018-03-21T02:10:19.143Z,89.31
2018-03-21T02:11:19.104Z,89.59
2018-03-21T02:12:19.082Z,90.16
2018-03-21T02:13:19.064Z,90.35
2018-03-21T02:14:19.045Z,90.44
2018-03-21T02:15:19.021Z,90.54
2018-03-21T02:16:19.012Z,89.97
2018-03-21T02:17:18.977Z,89.31
2018-03-21T02:18:18.958Z,88.74
2018-03-21T02:19:18.953Z,88.36
2018-03-21T02:20:18.916Z,88.17
2018-03-21T02:21:18.895Z,88.32
2018-03-21T02:22:18.902Z,88.70
2018-03-21T02:23:18.858Z,88.36
2018-03-21T02:24:18.833Z,88.42
2018-03-21T02:25:18.815Z,88.42
2018-03-21T02:26:18.793Z,88.74
2018-03-21T02:27:18.768Z,89.07
2018-03-21T02:28:18.771Z,89.07
2018-03-21T02:29:18.738Z,89.17
2018-03-21T02:30:18.721Z,89.73
2018-03-21T02:31:18.733Z,89.73
2018-03-21T02:32:18.665Z,89.73
2018-03-21T02:33:18.650Z,90.02
2018-03-21T02:34:18.649Z,89.64
2018-03-21T02:35:18.604Z,90.49
2018-03-21T02:36:18.582Z,90.21
2018-03-21T02:37:18.576Z,90.02
2018-03-21T02:38:18.559Z,90.21
2018-03-21T02:39:18.517Z,90.11
2018-03-21T02:40:18.501Z,90.11
2018-03-21T02:41:18.480Z,90.68
2018-03-21T02:42:18.461Z,90.59
2018-03-21T02:43:18.439Z,90.96
2018-03-21T02:44:18.428Z,91.34
2018-03-21T02:45:18.394Z,91.44
2018-03-21T02:46:18.373Z,90.77
2018-03-21T02:47:18.352Z,91.25
2018-03-21T02:48:18.344Z,91.06
2018-03-21T02:49:18.333Z,91.06
2018-03-21T02:50:18.310Z,90.68
2018-03-21T02:51:18.274Z,90.87
2018-03-21T02:52:18.247Z,91.06
2018-03-21T02:53:18.228Z,91.72
2018-03-21T02:54:18.205Z,91.63
2018-03-21T02:55:18.205Z,91.25
2018-03-21T02:56:18.190Z,91.44
2018-03-21T02:57:18.145Z,91.44
2018-03-21T02:58:18.129Z,91.06
2018-03-21T02:59:18.106Z,90.87
2018-03-21T03:00:18.097Z,90.49
2018-03-21T03:01:18.058Z,90.59
2018-03-21T03:02:18.056Z,90.30
2018-03-21T03:03:18.021Z,90.40
2018-03-21T03:04:18.008Z,90.59
2018-03-21T03:05:17.976Z,90.49
2018-03-21T03:06:17.951Z,90.49
2018-03-21T03:07:17.955Z,90.77
2018-03-21T03:08:17.913Z,90.59
2018-03-21T03:09:17.904Z,90.59
2018-03-21T03:10:17.881Z,90.59
2018-03-21T03:11:17.854Z,90.77
2018-03-21T03:12:17.847Z,90.96
2018-03-21T03:13:17.804Z,90.68
2018-03-21T03:14:17.804Z,91.25
2018-03-21T03:15:17.771Z,91.34
2018-03-21T03:16:17.744Z,90.96
2018-03-21T03:17:17.723Z,90.96
2018-03-21T03:18:17.720Z,90.77
2018-03-21T03:19:17.686Z,90.87
2018-03-21T03:20:17.670Z,91.34
2018-03-21T03:21:17.641Z,91.06
2018-03-21T03:22:17.645Z,91.06
2018-03-21T03:23:17.617Z,91.72
2018-03-21T03:24:17.583Z,91.63
2018-03-21T03:25:17.564Z,91.72
2018-03-21T03:26:17.543Z,91.53
2018-03-21T03:27:17.519Z,91.53
2018-03-21T03:28:17.510Z,91.44
2018-03-21T03:29:17.490Z,91.82
2018-03-21T03:30:17.455Z,92.00
2018-03-21T03:31:17.433Z,91.72
2018-03-21T03:32:17.406Z,91.72
2018-03-21T03:33:17.433Z,91.53
2018-03-21T03:34:17.385Z,91.82
2018-03-21T03:35:17.349Z,91.72
2018-03-21T03:36:17.330Z,92.19
2018-03-21T03:37:17.315Z,92.38
2018-03-21T03:38:17.289Z,92.10
2018-03-21T03:39:17.262Z,92.19
2018-03-21T03:40:17.253Z,92.38
2018-03-21T03:41:17.224Z,91.91
2018-03-21T03:42:17.203Z,92.10
2018-03-21T03:43:17.184Z,91.91
2018-03-21T03:44:17.155Z,92.10
2018-03-21T03:45:17.159Z,91.91
2018-03-21T03:46:17.116Z,92.29
2018-03-21T03:47:17.110Z,92.19
2018-03-21T03:48:17.074Z,92.10
2018-03-21T03:49:17.067Z,92.10
2018-03-21T03:50:17.026Z,91.63
2018-03-21T03:51:17.014Z,92.38
2018-03-21T03:52:17.005Z,92.29
2018-03-21T03:53:16.969Z,92.38
2018-03-21T03:54:16.966Z,92.47
2018-03-21T03:55:16.929Z,92.38
2018-03-21T03:56:16.907Z,92.29
2018-03-21T03:57:16.901Z,92.66
2018-03-21T03:58:16.862Z,92.47
2018-03-21T03:59:16.844Z,92.38
2018-03-21T04:00:16.840Z,92.94
2018-03-21T04:01:16.799Z,93.04
2018-03-21T04:02:16.773Z,93.13
2018-03-21T04:03:16.760Z,92.76
2018-03-21T04:04:16.755Z,93.32
2018-03-21T04:05:16.729Z,92.85
2018-03-21T04:06:16.701Z,93.23
2018-03-21T04:07:16.669Z,93.32
2018-03-21T04:08:16.650Z,93.23
2018-03-21T04:09:16.648Z,93.42
2018-03-21T04:10:16.611Z,93.32
2018-03-21T04:11:16.603Z,93.42
2018-03-21T04:12:16.570Z,92.94
2018-03-21T04:13:16.561Z,93.04
2018-03-21T04:14:16.523Z,93.32
2018-03-21T04:15:16.506Z,92.76
2018-03-21T04:16:16.499Z,92.85
2018-03-21T04:17:16.475Z,92.76
2018-03-21T04:18:16.441Z,92.85
2018-03-21T04:19:16.421Z,92.66
2018-03-21T04:20:16.399Z,92.66
2018-03-21T04:21:16.398Z,93.23
2018-03-21T04:22:16.362Z,93.13
2018-03-21T04:23:16.397Z,93.23
2018-03-21T04:24:16.311Z,93.13
2018-03-21T04:25:16.316Z,93.42
2018-03-21T04:26:16.284Z,92.76
2018-03-21T04:27:16.263Z,92.85
2018-03-21T04:28:16.238Z,92.85
2018-03-21T04:29:16.229Z,92.94
2018-03-21T04:30:16.185Z,93.32
2018-03-21T04:31:16.165Z,93.23
2018-03-21T04:32:16.149Z,93.42
2018-03-21T04:33:16.140Z,93.99
2018-03-21T04:34:16.101Z,93.70
2018-03-21T04:35:16.082Z,93.70
2018-03-21T04:36:16.057Z,93.70
2018-03-21T04:37:16.031Z,93.70
2018-03-21T04:38:16.011Z,93.61
2018-03-21T04:39:16.008Z,94.08
2018-03-21T04:40:15.988Z,94.37
2018-03-21T04:41:15.949Z,94.56
2018-03-21T04:42:15.927Z,94.84
2018-03-21T04:43:15.905Z,95.50
2018-03-21T04:44:15.904Z,95.87
2018-03-21T04:45:15.862Z,95.78
2018-03-21T04:46:15.858Z,96.82
2018-03-21T04:47:15.820Z,97.10
2018-03-21T04:48:15.800Z,98.24
2018-03-21T04:49:15.776Z,98.24
2018-03-21T04:50:15.777Z,98.90
2018-03-21T04:51:15.759Z,99.27
2018-03-21T04:52:15.712Z,99.65
2018-03-21T04:53:15.688Z,99.94
2018-03-21T04:54:15.719Z,99.99
2018-03-21T04:55:15.648Z,99.99
2018-03-21T04:56:15.647Z,99.99
2018-03-21T04:57:15.610Z,99.99
2018-03-21T04:58:15.583Z,99.99
2018-03-21T04:59:15.567Z,99.99
2018-03-21T05:00:15.538Z,99.99
2018-03-21T05:01:15.536Z,99.99
2018-03-21T05:02:15.497Z,99.99
2018-03-21T05:03:15.475Z,99.99
2018-03-21T05:04:15.451Z,99.99
2018-03-21T05:05:15.432Z,99.99
2018-03-21T05:06:15.408Z,99.99
2018-03-21T05:07:15.404Z,99.99
2018-03-21T05:08:15.369Z,99.99
2018-03-21T05:09:15.346Z,99.99
2018-03-21T05:10:15.326Z,99.99
2018-03-21T05:11:15.303Z,99.99
2018-03-21T05:12:15.301Z,99.99
2018-03-21T05:13:15.255Z,99.99
2018-03-21T05:14:15.263Z,99.99
2018-03-21T05:15:15.222Z,99.99
2018-03-21T05:16:15.195Z,99.99
2018-03-21T05:17:15.175Z,99.99
2018-03-21T05:18:15.182Z,99.99
2018-03-21T05:19:15.137Z,99.99
2018-03-21T05:20:15.104Z,99.99
2018-03-21T05:21:15.092Z,99.99
2018-03-21T05:22:15.067Z,99.99
2018-03-21T05:23:15.044Z,99.99
2018-03-21T05:24:15.039Z,99.99
2018-03-21T05:25:15.001Z,99.99
2018-03-21T05:26:14.985Z,99.99
2018-03-21T05:27:14.982Z,99.99
2018-03-21T05:28:14.939Z,99.99
2018-03-21T05:29:14.915Z,99.99
2018-03-21T05:30:14.896Z,99.99
2018-03-21T05:31:14.891Z,99.99
2018-03-21T05:32:14.854Z,99.99
2018-03-21T05:33:14.828Z,99.99
2018-03-21T05:34:14.808Z,99.99
2018-03-21T05:35:14.799Z,99.99
2018-03-21T05:36:14.766Z,99.99
2018-03-21T05:37:14.765Z,99.99
2018-03-21T05:38:14.730Z,99.99
2018-03-21T05:39:14.717Z,99.99
2018-03-21T05:40:14.683Z,99.99
2018-03-21T05:41:14.664Z,99.99
2018-03-21T05:42:14.643Z,99.99
2018-03-21T05:43:14.634Z,99.99
2018-03-21T05:44:14.596Z,99.99
2018-03-21T05:45:14.568Z,99.99
2018-03-21T05:46:14.555Z,99.99
2018-03-21T05:47:14.535Z,99.99
2018-03-21T05:48:14.529Z,99.99
2018-03-21T05:49:14.512Z,99.99
2018-03-21T05:50:14.468Z,99.99
2018-03-21T05:51:14.449Z,99.99
2018-03-21T05:52:14.433Z,99.99
2018-03-21T05:53:14.418Z,99.99
2018-03-21T05:54:14.394Z,99.99
2018-03-21T05:55:14.366Z,99.99
2018-03-21T05:56:14.349Z,99.99
2018-03-21T05:57:14.322Z,99.99
2018-03-21T05:58:14.315Z,99.99
2018-03-21T05:59:14.271Z,99.99
2018-03-21T06:00:14.260Z,99.99
2018-03-21T06:01:14.239Z,99.99
2018-03-21T06:02:14.215Z,99.99
2018-03-21T06:03:14.192Z,99.99
2018-03-21T06:04:14.203Z,99.99
2018-03-21T06:05:14.152Z,99.99
2018-03-21T06:06:14.133Z,99.99
2018-03-21T06:07:14.120Z,99.99
2018-03-21T06:08:14.088Z,99.99
2018-03-21T06:09:14.078Z,99.99
2018-03-21T06:10:14.053Z,99.99
2018-03-21T06:11:14.022Z,99.99
2018-03-21T06:12:14.009Z,99.99
2018-03-21T06:13:13.981Z,99.99
2018-03-21T06:14:13.979Z,99.99
2018-03-21T06:15:13.940Z,99.99
2018-03-21T06:16:13.926Z,99.99
2018-03-21T06:17:13.916Z,99.99
2018-03-21T06:18:13.890Z,99.99
2018-03-21T06:19:13.857Z,99.99
2018-03-21T06:20:13.833Z,99.99
2018-03-21T06:21:13.814Z,99.99
2018-03-21T06:22:13.809Z,99.99
2018-03-21T06:23:13.804Z,99.99
2018-03-21T06:24:13.745Z,99.99
2018-03-21T06:25:13.737Z,99.99
2018-03-21T06:26:13.707Z,99.99
2018-03-21T06:27:13.697Z,99.99
2018-03-21T06:28:13.680Z,99.99
2018-03-21T06:29:13.649Z,99.99
2018-03-21T06:30:13.624Z,99.99
2018-03-21T06:31:13.601Z,99.99
2018-03-21T06:32:13.594Z,99.99
2018-03-21T06:33:13.574Z,99.99
2018-03-21T06:34:13.532Z,99.99
2018-03-21T06:35:13.516Z,99.99
2018-03-21T06:36:13.495Z,99.99
2018-03-21T06:37:13.489Z,99.99
2018-03-21T06:38:13.472Z,99.99
2018-03-21T06:39:13.428Z,99.99
2018-03-21T06:40:13.421Z,99.99
2018-03-21T06:41:13.387Z,99.99
2018-03-21T06:42:13.366Z,99.99
2018-03-21T06:43:13.360Z,99.99
2018-03-21T06:44:13.339Z,99.99
2018-03-21T06:45:13.303Z,99.99
2018-03-21T06:46:13.285Z,99.99
2018-03-21T06:47:13.255Z,99.99
2018-03-21T06:48:13.254Z,99.99
2018-03-21T06:49:13.217Z,99.99
2018-03-21T06:50:13.195Z,99.99
2018-03-21T06:51:13.177Z,99.99
2018-03-21T06:52:13.153Z,99.99
2018-03-21T06:53:13.135Z,99.99
2018-03-21T06:54:13.122Z,99.99
2018-03-21T06:55:13.118Z,99.99
2018-03-21T06:56:13.064Z,99.99
2018-03-21T06:57:13.047Z,99.99
2018-03-21T06:58:13.023Z,99.99
2018-03-21T06:59:13.020Z,99.99
2018-03-21T07:00:12.983Z,99.99
2018-03-21T07:01:12.961Z,99.99
2018-03-21T07:02:12.943Z,99.99
2018-03-21T07:03:12.918Z,99.99
2018-03-21T07:04:12.923Z,99.99
2018-03-21T07:05:12.879Z,99.99
2018-03-21T07:06:12.863Z,99.99
2018-03-21T07:07:12.832Z,99.99
2018-03-21T07:08:12.825Z,99.99
2018-03-21T07:09:12.790Z,99.99
2018-03-21T07:10:12.807Z,99.99
2018-03-21T07:11:12.765Z,99.99
2018-03-21T07:12:12.730Z,99.99
2018-03-21T07:13:12.707Z,99.99
2018-03-21T07:14:12.692Z,99.99
2018-03-21T07:15:12.671Z,99.99
2018-03-21T07:16:12.665Z,99.99
2018-03-21T07:17:12.638Z,99.99
2018-03-21T07:18:12.610Z,99.99
2018-03-21T07:19:12.585Z,99.99
2018-03-21T07:20:12.568Z,99.99
2018-03-21T07:21:12.543Z,99.99
2018-03-21T07:22:12.545Z,99.99
2018-03-21T07:23:13.165Z,99.99
2018-03-21T07:24:12.480Z,99.99
2018-03-21T07:25:12.469Z,99.99
2018-03-21T07:26:12.442Z,99.99
2018-03-21T07:27:12.431Z,99.99
2018-03-21T07:28:12.411Z,99.99
2018-03-21T07:29:12.377Z,99.99
2018-03-21T07:30:12.362Z,99.99
2018-03-21T07:31:12.348Z,99.99
2018-03-21T07:32:12.316Z,99.99
2018-03-21T07:33:12.325Z,99.99
2018-03-21T07:34:12.280Z,99.99
2018-03-21T07:35:12.262Z,99.99
2018-03-21T07:36:12.236Z,99.99
2018-03-21T07:37:12.220Z,99.99
2018-03-21T07:38:12.198Z,99.99
2018-03-21T07:39:12.195Z,99.99
2018-03-21T07:40:12.155Z,99.99
2018-03-21T07:41:12.132Z,99.99
2018-03-21T07:42:12.116Z,99.99
2018-03-21T07:43:12.128Z,99.99
2018-03-21T07:44:12.091Z,99.99
2018-03-21T07:45:12.058Z,99.99
2018-03-21T07:46:12.029Z,99.99
2018-03-21T07:47:12.017Z,99.99
2018-03-21T07:48:11.996Z,99.99
2018-03-21T07:49:11.986Z,99.99
2018-03-21T07:50:11.953Z,99.99
2018-03-21T07:51:11.931Z,99.99
2018-03-21T07:52:11.912Z,99.99
2018-03-21T07:53:11.893Z,99.99
2018-03-21T07:54:11.875Z,99.99
2018-03-21T07:55:11.873Z,99.99
2018-03-21T07:56:11.828Z,99.99
2018-03-21T07:57:11.809Z,99.99
2018-03-21T07:58:11.809Z,99.99
2018-03-21T07:59:11.770Z,99.99
2018-03-21T08:00:11.751Z,99.99
2018-03-21T08:01:11.749Z,99.99
2018-03-21T08:02:11.714Z,99.99
2018-03-21T08:03:11.698Z,99.99
2018-03-21T08:04:11.695Z,99.99
2018-03-21T08:05:11.644Z,99.99
2018-03-21T08:06:11.641Z,99.99
2018-03-21T08:07:11.626Z,99.99
2018-03-21T08:08:11.589Z,99.99
2018-03-21T08:09:11.566Z,99.99
2018-03-21T08:10:11.543Z,99.99
2018-03-21T08:11:11.548Z,99.99
2018-03-21T08:12:11.507Z,99.99
2018-03-21T08:13:11.487Z,99.99
2018-03-21T08:14:11.470Z,99.99
2018-03-21T08:15:11.445Z,99.99
2018-03-21T08:16:11.431Z,99.99
2018-03-21T08:17:11.427Z,99.99
2018-03-21T08:18:11.393Z,99.99
2018-03-21T08:19:11.362Z,99.99
2018-03-21T08:20:11.365Z,99.99
2018-03-21T08:21:11.323Z,99.99
2018-03-21T08:22:11.325Z,99.99
2018-03-21T08:23:11.285Z,99.99
2018-03-21T08:24:11.266Z,99.99
2018-03-21T08:25:11.239Z,99.99
2018-03-21T08:26:11.226Z,99.99
2018-03-21T08:27:11.210Z,99.99
2018-03-21T08:28:11.207Z,99.99
2018-03-21T08:29:11.164Z,99.99
2018-03-21T08:30:11.157Z,99.99
2018-03-21T08:31:11.123Z,99.99
2018-03-21T08:32:11.107Z,99.99
2018-03-21T08:33:11.106Z,99.99
2018-03-21T08:34:11.065Z,99.99
2018-03-21T08:35:11.058Z,99.99
2018-03-21T08:36:11.029Z,99.99
2018-03-21T08:37:11.004Z,99.99
2018-03-21T08:38:11.031Z,99.99
2018-03-21T08:39:10.982Z,99.99
2018-03-21T08:40:10.946Z,99.99
2018-03-21T08:41:10.927Z,99.99
2018-03-21T08:42:10.909Z,99.99
2018-03-21T08:43:10.891Z,99.99
2018-03-21T08:44:10.886Z,99.99
2018-03-21T08:45:10.843Z,99.99
2018-03-21T08:46:10.839Z,99.99
2018-03-21T08:47:10.810Z,99.99
2018-03-21T08:48:10.837Z,99.99
2018-03-21T08:49:10.797Z,99.99
2018-03-21T08:50:10.748Z,99.99
2018-03-21T08:51:10.734Z,99.99
2018-03-21T08:52:10.704Z,99.99
2018-03-21T08:53:10.699Z,99.99
2018-03-21T08:54:10.671Z,99.99
2018-03-21T08:55:10.667Z,99.99
2018-03-21T08:56:10.627Z,99.99
2018-03-21T08:57:10.615Z,99.99
2018-03-21T08:58:10.584Z,99.99
2018-03-21T08:59:10.593Z,99.99
2018-03-21T09:00:10.582Z,99.99
2018-03-21T09:01:10.533Z,99.99
2018-03-21T09:02:10.521Z,99.99
2018-03-21T09:03:10.490Z,99.99
2018-03-21T09:04:10.470Z,99.99
2018-03-21T09:05:10.474Z,99.99
2018-03-21T09:06:10.428Z,99.99
2018-03-21T09:07:10.412Z,99.99
2018-03-21T09:08:10.390Z,99.99
2018-03-21T09:09:10.372Z,99.99
2018-03-21T09:10:10.354Z,99.95
2018-03-21T09:11:10.347Z,99.85
2018-03-21T09:12:10.319Z,99.95
2018-03-21T09:13:10.312Z,99.85
2018-03-21T09:14:10.272Z,99.99
2018-03-21T09:15:10.252Z,99.99
2018-03-21T09:16:10.249Z,99.99
2018-03-21T09:17:10.227Z,99.85
2018-03-21T09:18:10.213Z,99.99
2018-03-21T09:19:10.172Z,99.95
2018-03-21T09:20:10.156Z,99.76
2018-03-21T09:21:10.140Z,99.57
2018-03-21T09:22:10.130Z,99.38
2018-03-21T09:23:10.111Z,98.91
2018-03-21T09:24:10.080Z,98.63
2018-03-21T09:25:10.059Z,98.91
2018-03-21T09:26:10.086Z,98.63
2018-03-21T09:27:10.028Z,98.53
2018-03-21T09:28:10.033Z,99.29
2018-03-21T09:29:10.013Z,98.44
2018-03-21T09:30:09.960Z,97.68
2018-03-21T09:31:09.943Z,97.87
2018-03-21T09:32:09.924Z,97.68
2018-03-21T09:33:09.902Z,97.68
2018-03-21T09:34:09.893Z,97.87
2018-03-21T09:35:09.878Z,97.77
2018-03-21T09:36:09.852Z,97.77
2018-03-21T09:37:09.827Z,97.30
2018-03-21T09:38:09.802Z,97.87
2018-03-21T09:39:09.816Z,97.87
2018-03-21T09:40:09.771Z,97.92
2018-03-21T09:41:09.748Z,97.87
2018-03-21T09:42:09.730Z,97.92
2018-03-21T09:43:09.712Z,97.92
2018-03-21T09:44:09.695Z,97.20
2018-03-21T09:45:09.689Z,97.92
2018-03-21T09:46:09.654Z,97.30
2018-03-21T09:47:09.634Z,97.44
2018-03-21T09:48:09.623Z,96.97
2018-03-21T09:49:09.600Z,96.78
2018-03-21T09:50:09.574Z,97.63
2018-03-21T09:51:09.573Z,97.16
2018-03-21T09:52:09.535Z,96.97
2018-03-21T09:53:09.520Z,97.25
2018-03-21T09:54:09.496Z,97.06
2018-03-21T09:55:09.478Z,96.97
2018-03-21T09:56:09.478Z,96.97
2018-03-21T09:57:09.456Z,96.78
2018-03-21T09:58:09.414Z,96.50
2018-03-21T09:59:09.398Z,96.40
2018-03-21T10:00:09.378Z,96.31
2018-03-21T10:01:09.416Z,95.93
2018-03-21T10:02:09.344Z,95.83
2018-03-21T10:03:09.341Z,95.93
2018-03-21T10:04:09.321Z,95.74
2018-03-21T10:05:09.286Z,95.83
2018-03-21T10:06:09.284Z,95.36
2018-03-21T10:07:09.245Z,95.64
2018-03-21T10:08:09.244Z,95.55
2018-03-21T10:09:09.212Z,95.64
2018-03-21T10:10:09.191Z,95.55
2018-03-21T10:11:09.175Z,95.07
2018-03-21T10:12:09.217Z,95.36
2018-03-21T10:13:09.135Z,95.74
2018-03-21T10:14:09.130Z,95.45
2018-03-21T10:15:09.096Z,95.26
2018-03-21T10:16:09.084Z,95.83
2018-03-21T10:17:09.071Z,95.45
2018-03-21T10:18:09.067Z,95.45
2018-03-21T10:19:09.017Z,95.83
2018-03-21T10:20:09.014Z,95.83
2018-03-21T10:21:08.981Z,96.21
2018-03-21T10:22:08.966Z,96.21
2018-03-21T10:23:08.940Z,96.69
2018-03-21T10:24:08.942Z,96.69
2018-03-21T10:25:08.906Z,96.59
2018-03-21T10:26:08.889Z,96.50
2018-03-21T10:27:08.865Z,96.69
2018-03-21T10:28:08.862Z,96.40
2018-03-21T10:29:08.835Z,96.31
2018-03-21T10:30:08.815Z,96.02
2018-03-21T10:31:08.789Z,95.83
2018-03-21T10:32:08.790Z,95.64
2018-03-21T10:33:08.766Z,95.83
2018-03-21T10:34:08.752Z,95.55
2018-03-21T10:35:08.734Z,95.55
2018-03-21T10:36:08.705Z,95.36
2018-03-21T10:37:08.678Z,94.79
2018-03-21T10:38:08.665Z,94.84
2018-03-21T10:39:08.644Z,94.37
2018-03-21T10:40:08.636Z,93.99
2018-03-21T10:41:08.620Z,93.80
2018-03-21T10:42:08.592Z,93.80
2018-03-21T10:43:08.566Z,93.51
2018-03-21T10:44:08.556Z,93.89
2018-03-21T10:45:08.548Z,93.04
2018-03-21T10:46:08.528Z,92.57
2018-03-21T10:47:08.498Z,92.57
2018-03-21T10:48:08.480Z,92.19
2018-03-21T10:49:08.458Z,92.47
2018-03-21T10:50:08.442Z,93.13
2018-03-21T10:51:08.435Z,92.76
2018-03-21T10:52:08.406Z,92.76
2018-03-21T10:53:08.387Z,92.94
2018-03-21T10:54:08.410Z,92.66
2018-03-21T10:55:08.348Z,92.66
2018-03-21T10:56:08.329Z,91.52
2018-03-21T10:57:08.330Z,91.81
2018-03-21T10:58:08.290Z,91.43
2018-03-21T10:59:08.304Z,91.52
2018-03-21T11:00:08.263Z,91.62
2018-03-21T11:01:08.238Z,91.52
2018-03-21T11:02:29.234Z,91.52
2018-03-21T11:03:08.200Z,91.90
2018-03-21T11:04:08.182Z,91.24
2018-03-21T11:05:08.168Z,91.81
2018-03-21T11:06:08.143Z,92.09
2018-03-21T11:07:08.147Z,91.43
2018-03-21T11:08:08.121Z,91.24
2018-03-21T11:09:08.108Z,91.05
2018-03-21T11:10:08.088Z,91.62
2018-03-21T11:11:08.090Z,91.33
2018-03-21T11:12:08.031Z,91.62
2018-03-21T11:13:08.014Z,91.81
2018-03-21T11:14:07.991Z,92.38
2018-03-21T11:15:07.997Z,92.09
2018-03-21T11:16:07.958Z,92.38
2018-03-21T11:17:07.945Z,92.19
2018-03-21T11:18:07.924Z,91.90
2018-03-21T11:19:07.903Z,92.19
2018-03-21T11:20:07.886Z,92.38
2018-03-21T11:21:07.880Z,92.09
2018-03-21T11:22:07.847Z,92.47
2018-03-21T11:23:07.830Z,92.00
2018-03-21T11:24:07.805Z,91.52
2018-03-21T11:25:07.785Z,91.33
2018-03-21T11:26:07.802Z,90.95
2018-03-21T11:27:07.752Z,90.86
2018-03-21T11:28:07.731Z,90.58
2018-03-21T11:29:07.734Z,89.91
2018-03-21T11:30:07.707Z,90.05
2018-03-21T11:31:07.696Z,89.96
2018-03-21T11:32:07.655Z,88.92
2018-03-21T11:33:07.647Z,88.35
2018-03-21T11:34:07.690Z,88.25
2018-03-21T11:35:07.610Z,88.16
2018-03-21T11:36:07.614Z,88.06
2018-03-21T11:37:07.571Z,88.44
2018-03-21T11:38:07.559Z,88.44
2018-03-21T11:39:07.538Z,87.73
2018-03-21T11:40:07.513Z,86.07
2018-03-21T11:41:07.492Z,82.93
2018-03-21T11:42:07.531Z,81.13
2018-03-21T11:43:07.463Z,81.13
2018-03-21T11:44:07.447Z,81.60
2018-03-21T11:45:07.424Z,81.23
2018-03-21T11:46:07.409Z,81.09
2018-03-21T11:47:28.416Z,81.51
2018-03-21T11:48:07.403Z,81.60
2018-03-21T11:49:07.363Z,81.09
2018-03-21T11:50:07.352Z,82.32
2018-03-21T11:51:07.337Z,81.94
2018-03-21T11:52:07.318Z,82.13
2018-03-21T11:53:07.303Z,82.08
2018-03-21T11:54:07.295Z,81.60
2018-03-21T11:55:07.267Z,80.94
2018-03-21T11:56:07.244Z,79.80
2018-03-21T11:57:07.236Z,81.32
2018-03-21T11:58:07.233Z,80.80
2018-03-21T11:59:07.216Z,81.09
2018-03-21T12:00:07.182Z,80.14
2018-03-21T12:01:07.167Z,80.14
2018-03-21T12:02:07.151Z,80.18
2018-03-21T12:03:07.155Z,80.37
2018-03-21T12:04:07.119Z,79.71
2018-03-21T12:05:07.106Z,79.23
2018-03-21T12:06:07.096Z,79.33
2018-03-21T12:07:07.077Z,79.80
2018-03-21T12:08:07.054Z,79.61
2018-03-21T12:09:07.062Z,78.85
2018-03-21T12:10:07.036Z,79.00
2018-03-21T12:11:07.006Z,79.85
2018-03-21T12:12:06.988Z,81.09
2018-03-21T12:13:06.971Z,81.37
2018-03-21T12:14:06.953Z,81.56
2018-03-21T12:15:06.940Z,81.32
2018-03-21T12:16:06.937Z,79.90
2018-03-21T12:17:06.911Z,79.52
2018-03-21T12:18:06.892Z,78.83
2018-03-21T12:19:06.880Z,77.79
2018-03-21T12:20:06.888Z,76.40
2018-03-21T12:21:06.840Z,74.18
2018-03-21T12:22:06.844Z,75.13
2018-03-21T12:23:06.813Z,75.38
2018-03-21T12:24:06.796Z,76.52
2018-03-21T12:25:06.773Z,76.99
2018-03-21T12:26:06.764Z,76.80
2018-03-21T12:27:06.767Z,77.66
2018-03-21T12:28:06.731Z,78.13
2018-03-21T12:29:06.717Z,77.56
2018-03-21T12:30:06.712Z,78.03
2018-03-21T12:31:06.687Z,78.42
2018-03-21T12:32:06.667Z,76.80
2018-03-21T12:33:06.676Z,76.99
2018-03-21T12:34:06.643Z,77.56
2018-03-21T12:35:06.624Z,78.03
2018-03-21T12:36:06.608Z,78.23
2018-03-21T12:37:06.592Z,77.56
2018-03-21T12:38:06.582Z,77.12
2018-03-21T12:39:06.582Z,77.83
2018-03-21T12:40:06.558Z,75.21
2018-03-21T12:41:06.534Z,71.88
2018-03-21T12:42:06.519Z,70.74
2018-03-21T12:43:06.515Z,69.94
2018-03-21T12:44:06.529Z,70.32
2018-03-21T12:45:06.480Z,70.04
2018-03-21T12:46:06.457Z,71.04
2018-03-21T12:47:06.454Z,73.04
2018-03-21T12:48:06.451Z,73.52
2018-03-21T12:49:06.414Z,72.75
2018-03-21T12:50:06.434Z,72.09
2018-03-21T12:51:06.393Z,72.66
2018-03-21T12:52:06.389Z,72.95